Aérodrome :
LOGIN :

S'inscrire | Disclaimer

   EN    FR    IT 

 










Légende :    VFR   VFR Marginal   IFR   IFR Intensif   IFR Très Intensif
Visi : 
Plafond : 
>= 8 km
>= 3000ft
5 à 8 km
1000 à 3000 ft
1500m à 5 km
500 à 1000 ft
800 à 1500m
200 à 500 ft
< 800m
< 200 ft
Symboles :   Orages  Brouillard  Fortes neiges  Fortes précipitations  Vent > 20 kt
SIGMETs :   Divers  Orages  Givrage  Turbulence  Onde Orograph.  Cendres Volcan.







- Altitude de l'aérodrome : 939 ft


LKKB - Kbely Air Base

DERNIER METAR :
  • 241200Z 29017G27KT 9999 SCT037 12/04 Q1026 NOSIG

METARs EXPIRÉS :
  • 241100Z 29020G31KT 9999 SCT036 BKN045 11/03 Q1025 NOSIG
  • 241000Z 29019G30KT 9999 SCT030 BKN048 11/03 Q1025 NOSIG

TAF COR TAF LKKB
Valide du 24 à 06h jusqu'au 25 à 06h UTC


240500Z 2406/2506 29014G24KT 9999 BKN040
TEMPO 2406/2500 31018G36KT 8000 SHRA SCT022TCU
BECMG 2500/2502 CAVOK 29012KT
Pas de NOTAMs connus pour ce terrain.
2 SIGMETs publiés pour la FIR Praha (LKAA) :
 
Turbulence forte
LKAA SIGMET 2 VALID 241300/241700 LKPW
LKAA PRAHA FIR SEV TURB FCST N OF LINE N5004 E01210 - N4958 E01433 - N4922 E01625 - N4922 E01842 SFC/FL100 STNR WKN=
Turbulence forte
LKAA SIGMET 1 VALID 240903/241300 LKPW
LKAA PRAHA FIR SEV TURB FCST N OF LINE N5003 E01214 - N5042 E01443 - N4920 E01833 SFC/FL100 STNR INTSF=



MET'MAP, la Météo Aéronautique d'un coup d'oeil ! - Copyright ORBIFLY Décembre 2007 - Disclaimer

ORBIFLY MET'MAP TEAM :

Programmation & Développement : Alexandra Zaïnal
Conception & Développement : Baudouin d'Aumeries
Co-Programmation & Développement : Marc-Olivier Méhu
Soutien technique & logistique : Manuel Goepfert

Contact : metmap@orbifly.com




SOURCES & CREDITS :

   NOAA